Observation data for Graham on 08/12/2019      Previous  Date  Next       Current Mesonet Observations  Soil Data  Daily Summary Page  Observations in Plain Language
KGHS 120500Z 15009KT 30/09 A2998 RMK A01 T02960089  RH  028%=      5-min Rain = 0
KGHS 120505Z 15008KT 30/09 A2998 RMK A01 T02950090  RH  029%=      5-min Rain = 0
KGHS 120510Z 16008KT 29/09 A2998 RMK A01 T02940091  RH  029%=      5-min Rain = 0
KGHS 120515Z 17009KT 29/09 A2999 RMK A01 T02930092  RH  029%=      5-min Rain = 0
KGHS 120520Z 17011KT 29/09 A2998 RMK A01 T02940092  RH  029%=      5-min Rain = 0
KGHS 120525Z 17011KT 30/09 A2999 RMK A01 T02950092  RH  029%=      5-min Rain = 0
KGHS 120530Z 17010KT 30/09 A2999 RMK A01 T02950091  RH  029%=      5-min Rain = 0
KGHS 120535Z 18011G17KT 30/09 A2999 RMK A01 T02960089  RH  028%=      5-min Rain = 0
KGHS 120540Z 19009KT 30/09 A2999 RMK A01 T02960089  RH  028%=      5-min Rain = 0
KGHS 120545Z 19009KT 29/09 A2999 RMK A01 T02930089  RH  029%=      5-min Rain = 0
KGHS 120550Z 19008KT 29/09 A2999 RMK A01 T02910089  RH  029%=      5-min Rain = 0
KGHS 120555Z 21006KT 29/09 A2999 RMK A01 T02870090  RH  030%=      5-min Rain = 0
KGHS 120600Z 19004KT 28/09 A2999 RMK A01 T02830089  RH  031%=      5-min Rain = 0
KGHS 120605Z 19003KT 28/09 A2999 RMK A01 T02810089  RH  031%=      5-min Rain = 0
KGHS 120610Z 21005KT 28/09 A2999 RMK A01 T02820089  RH  031%=      5-min Rain = 0
KGHS 120615Z 21006KT 28/09 A2999 RMK A01 T02830088  RH  030%=      5-min Rain = 0
KGHS 120620Z 21007KT 28/09 A2999 RMK A01 T02840088  RH  030%=      5-min Rain = 0
KGHS 120625Z 22007KT 29/09 A2999 RMK A01 T02870088  RH  030%=      5-min Rain = 0
KGHS 120630Z 22007KT 29/09 A2998 RMK A01 T02880089  RH  030%=      5-min Rain = 0
KGHS 120635Z 22007KT 29/09 A2998 RMK A01 T02890089  RH  030%=      5-min Rain = 0
KGHS 120640Z 22006KT 29/09 A2998 RMK A01 T02890090  RH  030%=      5-min Rain = 0
KGHS 120645Z 22006KT 29/09 A2998 RMK A01 T02880091  RH  030%=      5-min Rain = 0
KGHS 120650Z 22006KT 29/09 A2998 RMK A01 T02860092  RH  030%=      5-min Rain = 0
KGHS 120655Z 20005KT 29/09 A2998 RMK A01 T02850092  RH  031%=      5-min Rain = 0
KGHS 120700Z 18002KT 28/09 A2998 RMK A01 T02830092  RH  031%=      5-min Rain = 0
KGHS 120705Z 15001KT 28/09 A2998 RMK A01 T02810091  RH  031%=      5-min Rain = 0
KGHS 120710Z 16001KT 28/09 A2998 RMK A01 T02790091  RH  032%=      5-min Rain = 0
KGHS 120715Z 19002KT 28/09 A2998 RMK A01 T02780092  RH  032%=      5-min Rain = 0
KGHS 120720Z 20003KT 28/09 A2998 RMK A01 T02780094  RH  033%=      5-min Rain = 0
KGHS 120725Z 17002KT 28/10 A2998 RMK A01 T02770095  RH  033%=      5-min Rain = 0
KGHS 120730Z 15003KT 28/10 A2998 RMK A01 T02760095  RH  033%=      5-min Rain = 0
KGHS 120735Z 12004KT 28/09 A2998 RMK A01 T02760092  RH  033%=      5-min Rain = 0
KGHS 120740Z 11003KT 28/09 A2998 RMK A01 T02750092  RH  033%=      5-min Rain = 0
KGHS 120745Z 13003KT 28/10 A2998 RMK A01 T02750095  RH  033%=      5-min Rain = 0
KGHS 120750Z 15004KT 28/10 A2997 RMK A01 T02760097  RH  034%=      5-min Rain = 0
KGHS 120755Z 16005KT 28/10 A2997 RMK A01 T02770100  RH  034%=      5-min Rain = 0
KGHS 120800Z 17005KT 28/10 A2998 RMK A01 T02760100  RH  034%=      5-min Rain = 0
KGHS 120805Z 16005KT 27/10 A2997 RMK A01 T02740100  RH  035%=      5-min Rain = 0
KGHS 120810Z 15006KT 27/10 A2997 RMK A01 T02720101  RH  035%=      5-min Rain = 0
KGHS 120815Z 15006KT 27/10 A2997 RMK A01 T02710102  RH  036%=      5-min Rain = 0
KGHS 120820Z 16005G11KT 27/11 A2998 RMK A01 T02700107  RH  037%=      5-min Rain = 0
KGHS 120825Z 16006KT 27/11 A2998 RMK A01 T02710111  RH  038%=      5-min Rain = 0
KGHS 120830Z 16006KT 27/11 A2997 RMK A01 T02710111  RH  038%=      5-min Rain = 0
KGHS 120835Z 15005KT 27/11 A2997 RMK A01 T02700112  RH  039%=      5-min Rain = 0
KGHS 120840Z 15005KT 27/11 A2998 RMK A01 T02700114  RH  039%=      5-min Rain = 0
KGHS 120845Z 15004KT 27/12 A2998 RMK A01 T02690115  RH  040%=      5-min Rain = 0
KGHS 120850Z 15005KT 27/12 A2998 RMK A01 T02690115  RH  040%=      5-min Rain = 0
KGHS 120855Z 14005KT 27/12 A2998 RMK A01 T02680116  RH  040%=      5-min Rain = 0
KGHS 120900Z 13006KT 27/12 A2998 RMK A01 T02680116  RH  040%=      5-min Rain = 0
KGHS 120905Z 13005KT 27/12 A2998 RMK A01 T02670116  RH  040%=      5-min Rain = 0
KGHS 120910Z 14006KT 27/12 A2998 RMK A01 T02670117  RH  041%=      5-min Rain = 0
KGHS 120915Z 14006KT 27/12 A2998 RMK A01 T02660118  RH  041%=      5-min Rain = 0
KGHS 120920Z 14006KT 26/12 A2998 RMK A01 T02640118  RH  042%=      5-min Rain = 0
KGHS 120925Z 14007KT 27/12 A2998 RMK A01 T02650120  RH  042%=      5-min Rain = 0
KGHS 120930Z 14007KT 27/12 A2998 RMK A01 T02650119  RH  042%=      5-min Rain = 0
KGHS 120935Z 14007KT 26/12 A2998 RMK A01 T02630119  RH  042%=      5-min Rain = 0
KGHS 120940Z 14006KT 26/12 A2998 RMK A01 T02620120  RH  043%=      5-min Rain = 0
KGHS 120945Z 15007KT 26/12 A2998 RMK A01 T02610120  RH  043%=      5-min Rain = 0
KGHS 120950Z 15007KT 26/12 A2998 RMK A01 T02600121  RH  043%=      5-min Rain = 0
KGHS 120955Z 15007KT 26/12 A2998 RMK A01 T02600121  RH  044%=      5-min Rain = 0
KGHS 121000Z 15007KT 26/12 A2998 RMK A01 T02590121  RH  044%=      5-min Rain = 0
KGHS 121005Z 15006KT 26/12 A2998 RMK A01 T02580120  RH  044%=      5-min Rain = 0
KGHS 121010Z 15006KT 26/12 A2998 RMK A01 T02560119  RH  044%=      5-min Rain = 0
KGHS 121015Z 14005KT 25/12 A2998 RMK A01 T02540117  RH  044%=      5-min Rain = 0
KGHS 121020Z 13005KT 25/12 A2998 RMK A01 T02510117  RH  045%=      5-min Rain = 0
KGHS 121025Z 13006KT 25/12 A2998 RMK A01 T02500117  RH  045%=      5-min Rain = 0
KGHS 121030Z 13006KT 25/12 A2998 RMK A01 T02490118  RH  046%=      5-min Rain = 0
KGHS 121035Z 14006KT 25/12 A2998 RMK A01 T02490119  RH  046%=      5-min Rain = 0
KGHS 121040Z 14006KT 25/12 A2998 RMK A01 T02480119  RH  046%=      5-min Rain = 0
KGHS 121045Z 15006KT 25/12 A2998 RMK A01 T02470119  RH  046%=      5-min Rain = 0
KGHS 121050Z 15005KT 25/12 A2998 RMK A01 T02450118  RH  047%=      5-min Rain = 0
KGHS 121055Z 16007KT 25/12 A2998 RMK A01 T02450120  RH  047%=      5-min Rain = 0
KGHS 121100Z 17006KT 25/12 A2998 RMK A01 T02460119  RH  047%=      5-min Rain = 0
KGHS 121105Z 17007KT 25/12 A2998 RMK A01 T02470122  RH  047%=      5-min Rain = 0
KGHS 121110Z 17008KT 25/13 A2998 RMK A01 T02490125  RH  048%=      5-min Rain = 0
KGHS 121115Z 17008KT 25/13 A2998 RMK A01 T02500126  RH  048%=      5-min Rain = 0
KGHS 121120Z 16008KT 25/13 A2998 RMK A01 T02490127  RH  048%=      5-min Rain = 0
KGHS 121125Z 16006KT 25/13 A2998 RMK A01 T02470127  RH  049%=      5-min Rain = 0
KGHS 121130Z 17006KT 25/13 A2998 RMK A01 T02470127  RH  049%=      5-min Rain = 0
KGHS 121135Z 17005KT 25/13 A2999 RMK A01 T02470128  RH  049%=      5-min Rain = 0
KGHS 121140Z 17004KT 25/13 A2998 RMK A01 T02470128  RH  049%=      5-min Rain = 0
KGHS 121145Z 16004KT 25/13 A2998 RMK A01 T02480128  RH  049%=      5-min Rain = 0
KGHS 121150Z 15004KT 25/13 A2998 RMK A01 T02470128  RH  049%=      5-min Rain = 0
KGHS 121155Z 15006G11KT 25/13 A2998 RMK A01 T02470131  RH  050%=      5-min Rain = 0
KGHS 121200Z 15007KT 25/13 A2998 RMK A01 T02480132  RH  050%=      5-min Rain = 0
KGHS 121205Z 15008KT 25/14 A2998 RMK A01 T02480136  RH  052%=      5-min Rain = 0
KGHS 121210Z 15007KT 25/14 A2998 RMK A01 T02480135  RH  052%=      5-min Rain = 0
KGHS 121215Z 15005KT 25/14 A2998 RMK A01 T02480136  RH  052%=      5-min Rain = 0
KGHS 121220Z 15005KT 25/14 A2999 RMK A01 T02470137  RH  053%=      5-min Rain = 0
KGHS 121225Z 14006KT 25/14 A2999 RMK A01 T02480140  RH  053%=      5-min Rain = 0
KGHS 121230Z 14005KT 25/14 A2999 RMK A01 T02480140  RH  053%=      5-min Rain = 0
KGHS 121235Z 14006KT 25/14 A2999 RMK A01 T02490142  RH  054%=      5-min Rain = 0
KGHS 121240Z 15007KT 25/14 A2999 RMK A01 T02500143  RH  054%=      5-min Rain = 0
KGHS 121245Z 15008KT 25/14 A2999 RMK A01 T02510144  RH  054%=      5-min Rain = 0
KGHS 121250Z 15008KT 25/15 A2999 RMK A01 T02510145  RH  054%=      5-min Rain = 0
KGHS 121255Z 15009KT 25/15 A2999 RMK A01 T02520147  RH  054%=      5-min Rain = 0
KGHS 121300Z 15009KT 25/15 A2999 RMK A01 T02530148  RH  054%=      5-min Rain = 0
KGHS 121305Z 15008KT 25/15 A2999 RMK A01 T02540147  RH  054%=      5-min Rain = 0
KGHS 121310Z 15006KT 25/15 A2999 RMK A01 T02540147  RH  054%=      5-min Rain = 0
KGHS 121315Z 16006KT 26/15 A2999 RMK A01 T02560147  RH  053%=      5-min Rain = 0
KGHS 121320Z 16005KT 26/15 A2999 RMK A01 T02560149  RH  054%=      5-min Rain = 0
KGHS 121325Z 16008KT 26/15 A2999 RMK A01 T02580153  RH  055%=      5-min Rain = 0
KGHS 121330Z 17008KT 26/16 A2999 RMK A01 T02610157  RH  055%=      5-min Rain = 0
KGHS 121335Z 17009KT 26/16 A2999 RMK A01 T02640160  RH  055%=      5-min Rain = 0
KGHS 121340Z 18008KT 27/16 A2999 RMK A01 T02660162  RH  055%=      5-min Rain = 0
KGHS 121345Z 17008KT 27/16 A2999 RMK A01 T02690162  RH  055%=      5-min Rain = 0
KGHS 121350Z 17008KT 27/16 A2999 RMK A01 T02710163  RH  054%=      5-min Rain = 0
KGHS 121355Z 17009KT 27/16 A30 RMK A01 T02740164  RH  053%=      5-min Rain = 0
KGHS 121400Z 17009KT 28/16 A30 RMK A01 T02750164  RH  053%=      5-min Rain = 0
KGHS 121405Z 18010KT 28/17 A30 RMK A01 T02760165  RH  053%=      5-min Rain = 0
KGHS 121410Z 18009G14KT 28/17 A30 RMK A01 T02770165  RH  053%=      5-min Rain = 0
KGHS 121415Z 18010KT 28/17 A2999 RMK A01 T02810166  RH  052%=      5-min Rain = 0
KGHS 121420Z 19010KT 28/17 A30 RMK A01 T02820166  RH  052%=      5-min Rain = 0
KGHS 121425Z 19011KT 28/17 A2999 RMK A01 T02840166  RH  051%=      5-min Rain = 0
KGHS 121430Z 18011KT 28/17 A2999 RMK A01 T02840166  RH  051%=      5-min Rain = 0
KGHS 121435Z 19010G15KT 29/17 A2999 RMK A01 T02870165  RH  050%=      5-min Rain = 0
KGHS 121440Z 18011KT 29/17 A2999 RMK A01 T02880165  RH  050%=      5-min Rain = 0
KGHS 121445Z 21010KT 29/16 A30 RMK A01 T02890164  RH  049%=      5-min Rain = 0
KGHS 121450Z 19013G19KT 29/16 A30 RMK A01 T02890163  RH  049%=      5-min Rain = 0
KGHS 121455Z 19011G16KT 29/16 A30 RMK A01 T02900163  RH  048%=      5-min Rain = 0
KGHS 121500Z 20011KT 29/16 A30 RMK A01 T02930163  RH  048%=      5-min Rain = 0
KGHS 121505Z 20007KT 30/16 A30 RMK A01 T02970163  RH  047%=      5-min Rain = 0
KGHS 121510Z 19008KT 30/16 A30 RMK A01 T03010163  RH  045%=      5-min Rain = 0
KGHS 121515Z 19010G15KT 30/16 A30 RMK A01 T03030162  RH  045%=      5-min Rain = 0
KGHS 121520Z 20010G15KT 30/16 A30 RMK A01 T03000161  RH  045%=      5-min Rain = 0
KGHS 121525Z 20008G14KT 30/16 A2999 RMK A01 T03020163  RH  045%=      5-min Rain = 0
KGHS 121530Z 19012KT 31/16 A2999 RMK A01 T03080160  RH  043%=      5-min Rain = 0
KGHS 121535Z 21011G16KT 31/16 A2999 RMK A01 T03100158  RH  042%=      5-min Rain = 0
KGHS 121540Z 21011KT 31/16 A2999 RMK A01 T03110160  RH  042%=      5-min Rain = 0
KGHS 121545Z 19011G16KT 31/16 A2999 RMK A01 T03090161  RH  043%=      5-min Rain = 0
KGHS 121550Z 19012KT 31/16 A2999 RMK A01 T03110159  RH  042%=      5-min Rain = 0
KGHS 121555Z 19010KT 31/16 A2999 RMK A01 T03130160  RH  042%=      5-min Rain = 0
KGHS 121600Z 20010KT 32/16 A2999 RMK A01 T03170159  RH  040%=      5-min Rain = 0
KGHS 121605Z 23009KT 32/16 A2999 RMK A01 T03180158  RH  040%=      5-min Rain = 0
KGHS 121610Z 19011G16KT 32/16 A2999 RMK A01 T03200159  RH  040%=      5-min Rain = 0
KGHS 121615Z 21010G15KT 32/16 A2999 RMK A01 T03200159  RH  040%=      5-min Rain = 0
KGHS 121620Z 21009KT 32/16 A2999 RMK A01 T03200159  RH  040%=      5-min Rain = 0
KGHS 121625Z 19010KT 32/16 A2998 RMK A01 T03210159  RH  040%=      5-min Rain = 0
KGHS 121630Z 18009G14KT 32/16 A2998 RMK A01 T03240159  RH  039%=      5-min Rain = 0
KGHS 121635Z 18008G13KT 33/16 A2998 RMK A01 T03250159  RH  039%=      5-min Rain = 0
KGHS 121640Z 20008G15KT 33/16 A2998 RMK A01 T03260159  RH  038%=      5-min Rain = 0
KGHS 121645Z 19009KT 33/16 A2998 RMK A01 T03290158  RH  038%=      5-min Rain = 0
KGHS 121650Z 18008G13KT 33/16 A2998 RMK A01 T03310157  RH  037%=      5-min Rain = 0
KGHS 121655Z 20009G14KT 33/16 A2998 RMK A01 T03310157  RH  037%=      5-min Rain = 0
KGHS 121700Z 21006G11KT 33/16 A2998 RMK A01 T03340160  RH  037%=      5-min Rain = 0
KGHS 121705Z 21008G14KT 34/16 A2998 RMK A01 T03410157  RH  035%=      5-min Rain = 0
KGHS 121710Z 19010G15KT 34/16 A2998 RMK A01 T03400155  RH  034%=      5-min Rain = 0
KGHS 121715Z 20008KT 34/16 A2998 RMK A01 T03400157  RH  035%=      5-min Rain = 0
KGHS 121720Z 19007G13KT 34/16 A2998 RMK A01 T03420158  RH  035%=      5-min Rain = 0
KGHS 121725Z 19011G16KT 34/16 A2997 RMK A01 T03430156  RH  034%=      5-min Rain = 0
KGHS 121730Z 19009KT 34/16 A2997 RMK A01 T03430157  RH  034%=      5-min Rain = 0
KGHS 121735Z 18009G14KT 35/16 A2997 RMK A01 T03460156  RH  034%=      5-min Rain = 0
KGHS 121740Z 16004G9KT 35/16 A2997 RMK A01 T03470155  RH  033%=      5-min Rain = 0
KGHS 121745Z 15006G14KT 35/16 A2996 RMK A01 T03480155  RH  033%=      5-min Rain = 0
KGHS 121750Z 16012KT 36/15 A2996 RMK A01 T03570150  RH  031%=      5-min Rain = 0
KGHS 121755Z 18011KT 36/15 A2996 RMK A01 T03590151  RH  030%=      5-min Rain = 0
KGHS 121800Z 18007G12KT 36/16 A2996 RMK A01 T03550155  RH  032%=      5-min Rain = 0
KGHS 121805Z 16010G17KT 36/15 A2996 RMK A01 T03580153  RH  031%=      5-min Rain = 0
KGHS 121810Z 18010G16KT 36/15 A2996 RMK A01 T03620150  RH  030%=      5-min Rain = 0
KGHS 121815Z 15011G18KT 36/15 A2996 RMK A01 T03620152  RH  030%=      5-min Rain = 0
KGHS 121820Z 17012KT 36/15 A2996 RMK A01 T03620152  RH  030%=      5-min Rain = 0
KGHS 121825Z 19010G15KT 36/15 A2996 RMK A01 T03630152  RH  030%=      5-min Rain = 0
KGHS 121830Z 15013G18KT 37/15 A2995 RMK A01 T03680148  RH  028%=      5-min Rain = 0
KGHS 121835Z 14012G17KT 37/15 A2995 RMK A01 T03680149  RH  028%=      5-min Rain = 0
KGHS 121840Z 18011G17KT 37/15 A2995 RMK A01 T03690145  RH  028%=      5-min Rain = 0
KGHS 121845Z 16011G17KT 37/15 A2995 RMK A01 T03740147  RH  027%=      5-min Rain = 0
KGHS 121850Z 17011G17KT 37/15 A2995 RMK A01 T03740149  RH  028%=      5-min Rain = 0
KGHS 121855Z 19013G20KT 37/14 A2994 RMK A01 T03710140  RH  026%=      5-min Rain = 0
KGHS 121900Z 19012G19KT 37/14 A2994 RMK A01 T03720144  RH  027%=      5-min Rain = 0
KGHS 121905Z 15012G18KT 37/15 A2994 RMK A01 T03740147  RH  027%=      5-min Rain = 0
KGHS 121910Z 14013KT 38/14 A2994 RMK A01 T03780144  RH  026%=      5-min Rain = 0
KGHS 121915Z 14013G19KT 37/15 A2994 RMK A01 T03730146  RH  027%=      5-min Rain = 0
KGHS 121920Z 17015G20KT 38/13 A2994 RMK A01 T03780134  RH  025%=      5-min Rain = 0
KGHS 121925Z 17010G18KT 37/14 A2994 RMK A01 T03730135  RH  025%=      5-min Rain = 0
KGHS 121930Z 16011G20KT 38/14 A2993 RMK A01 T03750140  RH  026%=      5-min Rain = 0
KGHS 121935Z 17015G21KT 38/14 A2993 RMK A01 T03790140  RH  025%=      5-min Rain = 0
KGHS 121940Z 20012G18KT 38/14 A2993 RMK A01 T03800139  RH  025%=      5-min Rain = 0
KGHS 121945Z 16012G19KT 38/14 A2993 RMK A01 T03780139  RH  025%=      5-min Rain = 0
KGHS 121950Z 16018G24KT 38/14 A2992 RMK A01 T03780137  RH  025%=      5-min Rain = 0
KGHS 121955Z 15014G19KT 38/14 A2992 RMK A01 T03750136  RH  025%=      5-min Rain = 0
KGHS 122000Z 15013G19KT 38/14 A2992 RMK A01 T03790138  RH  025%=      5-min Rain = 0
KGHS 122005Z 16013G22KT 38/14 A2992 RMK A01 T03810137  RH  025%=      5-min Rain = 0
KGHS 122010Z 15012G17KT 38/14 A2992 RMK A01 T03800137  RH  025%=      5-min Rain = 0
KGHS 122015Z 18011G17KT 38/14 A2991 RMK A01 T03790136  RH  025%=      5-min Rain = 0
KGHS 122020Z 16014G22KT 37/13 A2991 RMK A01 T03740134  RH  025%=      5-min Rain = 0
KGHS 122025Z 16014G21KT 37/13 A2991 RMK A01 T03720133  RH  025%=      5-min Rain = 0
KGHS 122030Z 15005KT 37/13 A2991 RMK A01 T03710131  RH  025%=      5-min Rain = 0
KGHS 122035Z 18012G22KT 37/13 A299 RMK A01 T03720130  RH  025%=      5-min Rain = 0
KGHS 122040Z 17015G23KT 38/13 A299 RMK A01 T03790125  RH  023%=      5-min Rain = 0
KGHS 122045Z 17013KT 38/12 A299 RMK A01 T03780122  RH  023%=      5-min Rain = 0
KGHS 122050Z 16018G24KT 38/13 A2989 RMK A01 T03770131  RH  024%=      5-min Rain = 0
KGHS 122055Z 17014KT 38/13 A299 RMK A01 T03770131  RH  024%=      5-min Rain = 0
KGHS 122100Z 17012G20KT 38/12 A299 RMK A01 T03820122  RH  022%=      5-min Rain = 0
KGHS 122105Z 18009G15KT 38/12 A2989 RMK A01 T03840117  RH  021%=      5-min Rain = 0
KGHS 122110Z 16009KT 38/12 A2989 RMK A01 T03830118  RH  021%=      5-min Rain = 0
KGHS 122115Z 15010G17KT 38/12 A2989 RMK A01 T03820121  RH  022%=      5-min Rain = 0
KGHS 122120Z 18015G23KT 39/12 A2988 RMK A01 T03860116  RH  021%=      5-min Rain = 0
KGHS 122125Z 18010G15KT 39/12 A2988 RMK A01 T03910116  RH  020%=      5-min Rain = 0
KGHS 122130Z 17008G13KT 39/12 A2988 RMK A01 T03920123  RH  021%=      5-min Rain = 0
KGHS 122135Z 20008G14KT 39/11 A2988 RMK A01 T03900113  RH  020%=      5-min Rain = 0
KGHS 122140Z 22010G16KT 39/11 A2988 RMK A01 T03910113  RH  020%=      5-min Rain = 0
KGHS 122145Z 17009KT 39/11 A2988 RMK A01 T03930112  RH  019%=      5-min Rain = 0
KGHS 122150Z 19010G18KT 39/11 A2987 RMK A01 T03930111  RH  019%=      5-min Rain = 0
KGHS 122155Z 19013G19KT 39/11 A2987 RMK A01 T03880111  RH  020%=      5-min Rain = 0
KGHS 122200Z 18008KT 39/11 A2987 RMK A01 T03850113  RH  020%=      5-min Rain = 0
KGHS 122205Z 19005G12KT 39/11 A2987 RMK A01 T03850113  RH  020%=      5-min Rain = 0
KGHS 122210Z 18011KT 38/11 A2987 RMK A01 T03830110  RH  020%=      5-min Rain = 0
KGHS 122215Z 18013G18KT 38/11 A2987 RMK A01 T03810110  RH  020%=      5-min Rain = 0
KGHS 122220Z 19011G16KT 38/11 A2987 RMK A01 T03840109  RH  020%=      5-min Rain = 0
KGHS 122225Z 21008KT 39/11 A2987 RMK A01 T03890109  RH  019%=      5-min Rain = 0
KGHS 122230Z 16007G12KT 39/11 A2987 RMK A01 T03910109  RH  019%=      5-min Rain = 0
KGHS 122235Z 18013G21KT 39/11 A2986 RMK A01 T03930108  RH  019%=      5-min Rain = 0
KGHS 122240Z 19016KT 39/11 A2986 RMK A01 T03900106  RH  019%=      5-min Rain = 0
KGHS 122245Z 17011G16KT 39/11 A2986 RMK A01 T03850106  RH  019%=      5-min Rain = 0
KGHS 122250Z 17011G18KT 39/11 A2986 RMK A01 T03850106  RH  019%=      5-min Rain = 0
KGHS 122255Z 17012G22KT 39/11 A2986 RMK A01 T03860105  RH  019%=      5-min Rain = 0
KGHS 122300Z 18014G20KT 39/10 A2985 RMK A01 T03860104  RH  019%=      5-min Rain = 0
KGHS 122305Z 19014G19KT 39/10 A2985 RMK A01 T03880104  RH  019%=      5-min Rain = 0
KGHS 122310Z 20012KT 39/10 A2986 RMK A01 T03850104  RH  019%=      5-min Rain = 0
KGHS 122315Z 20009G14KT 38/10 A2985 RMK A01 T03810103  RH  019%=      5-min Rain = 0
KGHS 122320Z 20009KT 38/10 A2985 RMK A01 T03810104  RH  019%=      5-min Rain = 0
KGHS 122325Z 20008KT 39/10 A2985 RMK A01 T03850102  RH  019%=      5-min Rain = 0
KGHS 122330Z 19012G22KT 39/10 A2984 RMK A01 T03860096  RH  018%=      5-min Rain = 0
KGHS 122335Z 19008G13KT 39/09 A2985 RMK A01 T03880092  RH  017%=      5-min Rain = 0
KGHS 122340Z 18009KT 39/09 A2984 RMK A01 T03880092  RH  017%=      5-min Rain = 0
KGHS 122345Z 18011KT 39/09 A2984 RMK A01 T03850092  RH  018%=      5-min Rain = 0
KGHS 122350Z 20011KT 39/09 A2984 RMK A01 T03850092  RH  018%=      5-min Rain = 0
KGHS 122355Z 18009KT 39/09 A2984 RMK A01 T03850093  RH  018%=      5-min Rain = 0
KGHS 130000Z 17010KT 39/09 A2984 RMK A01 T03850093  RH  018%=      5-min Rain = 0
KGHS 130005Z 15009KT 39/09 A2984 RMK A01 T03850092  RH  018%=      5-min Rain = 0
KGHS 130010Z 16008KT 38/09 A2984 RMK A01 T03840093  RH  018%=      5-min Rain = 0
KGHS 130015Z 17010KT 39/09 A2984 RMK A01 T03850091  RH  017%=      5-min Rain = 0
KGHS 130020Z 18012G20KT 39/09 A2983 RMK A01 T03860086  RH  017%=      5-min Rain = 0
KGHS 130025Z 19012G17KT 39/08 A2983 RMK A01 T03850080  RH  016%=      5-min Rain = 0
KGHS 130030Z 20009KT 39/08 A2984 RMK A01 T03850079  RH  016%=      5-min Rain = 0
KGHS 130035Z 19011KT 39/08 A2984 RMK A01 T03850081  RH  016%=      5-min Rain = 0
KGHS 130040Z 18012KT 39/08 A2984 RMK A01 T03850083  RH  017%=      5-min Rain = 0
KGHS 130045Z 17011KT 38/08 A2984 RMK A01 T03840083  RH  017%=      5-min Rain = 0
KGHS 130050Z 17009G14KT 38/08 A2984 RMK A01 T03830083  RH  017%=      5-min Rain = 0
KGHS 130055Z 18009G18KT 38/08 A2984 RMK A01 T03830082  RH  017%=      5-min Rain = 0
KGHS 130100Z 19013G20KT 38/08 A2984 RMK A01 T03820079  RH  016%=      5-min Rain = 0
KGHS 130105Z 20010KT 38/08 A2984 RMK A01 T03810077  RH  016%=      5-min Rain = 0
KGHS 130110Z 20007KT 38/08 A2984 RMK A01 T03800079  RH  016%=      5-min Rain = 0
KGHS 130115Z 19008KT 38/08 A2985 RMK A01 T03780078  RH  017%=      5-min Rain = 0
KGHS 130120Z 18008KT 38/08 A2985 RMK A01 T03770079  RH  017%=      5-min Rain = 0
KGHS 130125Z 17008KT 38/08 A2985 RMK A01 T03750078  RH  017%=      5-min Rain = 0
KGHS 130130Z 18009KT 37/08 A2985 RMK A01 T03740077  RH  017%=      5-min Rain = 0
KGHS 130135Z 20007KT 37/08 A2985 RMK A01 T03720078  RH  017%=      5-min Rain = 0
KGHS 130140Z 19007KT 37/08 A2985 RMK A01 T03700080  RH  018%=      5-min Rain = 0
KGHS 130145Z 20005KT 37/08 A2985 RMK A01 T03660081  RH  018%=      5-min Rain = 0
KGHS 130150Z 20005KT 36/08 A2986 RMK A01 T03630083  RH  019%=      5-min Rain = 0
KGHS 130155Z 21006KT 36/09 A2986 RMK A01 T03610085  RH  019%=      5-min Rain = 0
KGHS 130200Z 22006KT 36/09 A2986 RMK A01 T03590087  RH  020%=      5-min Rain = 0
KGHS 130205Z 23006KT 36/09 A2986 RMK A01 T03570088  RH  020%=      5-min Rain = 0
KGHS 130210Z 24005KT 35/09 A2986 RMK A01 T03540090  RH  021%=      5-min Rain = 0
KGHS 130215Z 24006KT 35/09 A2986 RMK A01 T03510091  RH  021%=      5-min Rain = 0
KGHS 130220Z 25006KT 35/09 A2986 RMK A01 T03500092  RH  021%=      5-min Rain = 0
KGHS 130225Z 27006KT 35/09 A2987 RMK A01 T03460093  RH  022%=      5-min Rain = 0
KGHS 130230Z 28006KT 34/10 A2987 RMK A01 T03400095  RH  023%=      5-min Rain = 0
KGHS 130235Z 03003KT 34/10 A2987 RMK A01 T03390096  RH  023%=      5-min Rain = 0
KGHS 130240Z 10005KT 34/09 A2988 RMK A01 T03380090  RH  023%=      5-min Rain = 0
KGHS 130245Z 14006KT 34/09 A2988 RMK A01 T03410091  RH  022%=      5-min Rain = 0
KGHS 130250Z 13008KT 34/11 A2988 RMK A01 T03430112  RH  025%=      5-min Rain = 0
KGHS 130255Z 13013G18KT 34/13 A2988 RMK A01 T03430125  RH  028%=      5-min Rain = 0
KGHS 130300Z 11010KT 34/13 A2988 RMK A01 T03440127  RH  028%=      5-min Rain = 0
KGHS 130305Z 12010KT 34/13 A2988 RMK A01 T03420128  RH  028%=      5-min Rain = 0
KGHS 130310Z 11010G15KT 34/13 A2988 RMK A01 T03420131  RH  029%=      5-min Rain = 0
KGHS 130315Z 13014KT 34/13 A2988 RMK A01 T03410133  RH  030%=      5-min Rain = 0
KGHS 130320Z 13011KT 34/13 A2988 RMK A01 T03400133  RH  030%=      5-min Rain = 0
KGHS 130325Z 14012KT 34/14 A2989 RMK A01 T03380135  RH  031%=      5-min Rain = 0
KGHS 130330Z 14011G17KT 34/14 A2989 RMK A01 T03370136  RH  031%=      5-min Rain = 0
KGHS 130335Z 13010KT 34/14 A2989 RMK A01 T03370136  RH  031%=      5-min Rain = 0
KGHS 130340Z 13012G17KT 34/14 A2989 RMK A01 T03350137  RH  031%=      5-min Rain = 0
KGHS 130345Z 14012KT 33/14 A2989 RMK A01 T03330137  RH  032%=      5-min Rain = 0
KGHS 130350Z 14011G16KT 33/14 A2989 RMK A01 T03320137  RH  032%=      5-min Rain = 0
KGHS 130355Z 13012KT 33/14 A2989 RMK A01 T03300137  RH  032%=      5-min Rain = 0
KGHS 130400Z 14013G18KT 33/14 A2989 RMK A01 T03290136  RH  033%=      5-min Rain = 0
KGHS 130405Z 14016G21KT 33/14 A2989 RMK A01 T03290137  RH  033%=      5-min Rain = 0
KGHS 130410Z 14013KT 33/14 A2989 RMK A01 T03280137  RH  033%=      5-min Rain = 0
KGHS 130415Z 13012G17KT 33/14 A2989 RMK A01 T03260137  RH  033%=      5-min Rain = 0
KGHS 130420Z 12011G16KT 33/14 A2989 RMK A01 T03250136  RH  033%=      5-min Rain = 0
KGHS 130425Z 14011KT 32/14 A2989 RMK A01 T03240137  RH  034%=      5-min Rain = 0
KGHS 130430Z 14011KT 32/14 A299 RMK A01 T03230137  RH  034%=      5-min Rain = 0
KGHS 130435Z 14012G19KT 32/14 A2989 RMK A01 T03220137  RH  034%=      5-min Rain = 0
KGHS 130440Z 14012KT 32/14 A2989 RMK A01 T03210137  RH  034%=      5-min Rain = 0
KGHS 130445Z 15013KT 32/14 A299 RMK A01 T03200137  RH  034%=      5-min Rain = 0
KGHS 130450Z 15011G16KT 32/14 A299 RMK A01 T03190136  RH  034%=      5-min Rain = 0
KGHS 130455Z 16013G19KT 32/14 A299 RMK A01 T03190135  RH  034%=      5-min Rain = 0

Page generated in 0.0162 seconds.